createdAt,value
2022-12-12T00:00:15.195Z,20.60
2022-12-12T00:02:50.269Z,17.88
2022-12-12T00:05:18.801Z,18.67
2022-12-12T00:07:45.930Z,20.50
2022-12-12T00:10:13.404Z,17.92
2022-12-12T00:12:40.743Z,23.20
2022-12-12T00:15:08.652Z,17.33
2022-12-12T00:17:35.575Z,19.13
2022-12-12T00:20:02.539Z,21.92
2022-12-12T00:22:29.382Z,20.73
2022-12-12T00:24:56.306Z,16.90
2022-12-12T00:27:23.293Z,20.00
2022-12-12T00:29:54.305Z,18.55
2022-12-12T00:32:21.544Z,19.42
2022-12-12T00:34:48.514Z,21.67
2022-12-12T00:37:15.953Z,19.75
2022-12-12T00:39:42.878Z,18.83
2022-12-12T00:42:10.067Z,15.73
2022-12-12T00:44:37.385Z,19.77
2022-12-12T00:47:04.498Z,18.90
2022-12-12T00:49:31.584Z,22.00
2022-12-12T00:51:58.602Z,22.15
2022-12-12T00:54:25.742Z,19.58
2022-12-12T00:56:52.983Z,20.55
2022-12-12T00:59:19.980Z,19.85
2022-12-12T01:01:47.638Z,20.48
2022-12-12T01:04:14.913Z,20.40
2022-12-12T01:06:41.952Z,23.15
2022-12-12T01:09:09.059Z,19.92
2022-12-12T01:11:36.214Z,19.88
2022-12-12T01:14:03.200Z,16.70
2022-12-12T01:16:30.799Z,18.52
2022-12-12T01:18:58.299Z,19.25
2022-12-12T01:21:25.477Z,19.83
2022-12-12T01:23:52.625Z,25.80
2022-12-12T01:26:23.577Z,21.05
2022-12-12T01:28:51.690Z,20.35
2022-12-12T01:31:18.878Z,22.17
2022-12-12T01:33:46.430Z,20.83
2022-12-12T01:36:19.774Z,18.88
2022-12-12T01:38:48.830Z,21.13
2022-12-12T01:41:17.217Z,23.92
2022-12-12T01:43:45.303Z,21.45
2022-12-12T01:46:35.345Z,19.67
2022-12-12T01:49:13.313Z,19.27
2022-12-12T01:51:41.789Z,21.05
2022-12-12T01:54:13.432Z,18.42
2022-12-12T01:56:43.029Z,19.55
2022-12-12T01:59:14.208Z,24.02
2022-12-12T02:01:42.287Z,25.20
2022-12-12T02:04:10.632Z,21.60
2022-12-12T02:06:38.391Z,21.35
2022-12-12T02:09:10.764Z,21.48
2022-12-12T02:11:46.718Z,23.50
2022-12-12T02:14:17.975Z,21.20
2022-12-12T02:17:04.882Z,22.80
2022-12-12T02:19:49.938Z,21.75
2022-12-12T02:22:40.007Z,24.55
2022-12-12T02:25:09.938Z,18.40
2022-12-12T02:27:48.886Z,20.63
2022-12-12T02:30:36.001Z,22.88
2022-12-12T02:33:26.794Z,20.88
2022-12-12T02:36:23.060Z,19.80
2022-12-12T02:39:24.059Z,18.98
2022-12-12T02:42:28.659Z,16.77
2022-12-12T02:45:22.763Z,20.63
2022-12-12T02:48:03.333Z,20.15
2022-12-12T02:50:31.709Z,19.25
2022-12-12T02:53:00.497Z,17.55
2022-12-12T02:55:27.742Z,20.52
2022-12-12T02:57:55.390Z,19.95
2022-12-12T03:00:22.432Z,20.45
2022-12-12T03:03:23.448Z,20.67
2022-12-12T03:06:41.216Z,21.52
2022-12-12T03:09:30.782Z,18.30
2022-12-12T03:12:16.991Z,20.10
2022-12-12T03:15:06.033Z,24.90
2022-12-12T03:17:49.631Z,19.58
2022-12-12T03:20:47.830Z,22.90
2022-12-12T03:23:21.234Z,18.58
2022-12-12T03:25:56.654Z,20.58
2022-12-12T03:28:52.986Z,21.23
2022-12-12T03:31:25.401Z,19.73
2022-12-12T03:34:03.388Z,17.00
2022-12-12T03:36:42.640Z,22.00
2022-12-12T03:39:15.914Z,23.33
2022-12-12T03:41:52.206Z,23.58
2022-12-12T03:44:49.350Z,21.13
2022-12-12T03:47:21.986Z,24.13
2022-12-12T03:50:02.184Z,20.20
2022-12-12T03:52:45.941Z,21.33
2022-12-12T03:55:20.505Z,20.17
2022-12-12T03:58:02.445Z,19.70
2022-12-12T04:00:32.226Z,19.95
2022-12-12T04:03:03.159Z,23.02
2022-12-12T04:05:37.561Z,26.10
2022-12-12T04:08:18.823Z,28.10
2022-12-12T04:11:12.220Z,23.35
2022-12-12T04:13:53.090Z,23.88
2022-12-12T04:16:36.699Z,26.57
2022-12-12T04:19:37.657Z,22.95
2022-12-12T04:22:27.503Z,22.77
2022-12-12T04:25:09.736Z,20.67
2022-12-12T04:27:47.263Z,20.70
2022-12-12T04:30:19.044Z,20.83
2022-12-12T04:32:49.673Z,25.02
2022-12-12T04:35:18.927Z,23.58
2022-12-12T04:37:54.063Z,20.30
2022-12-12T04:40:29.107Z,21.73
2022-12-12T04:43:09.869Z,24.70
2022-12-12T04:45:41.682Z,18.70
2022-12-12T04:48:14.417Z,18.55
2022-12-12T04:50:44.422Z,22.02
2022-12-12T04:53:18.627Z,24.13
2022-12-12T04:55:55.544Z,20.75
2022-12-12T04:58:23.298Z,22.88
2022-12-12T05:00:53.178Z,18.55
2022-12-12T05:03:46.473Z,19.83
2022-12-12T05:06:21.020Z,17.15
2022-12-12T05:08:52.024Z,19.17
2022-12-12T05:11:21.334Z,21.95
2022-12-12T05:13:49.912Z,20.35
2022-12-12T05:16:32.623Z,17.45
2022-12-12T05:19:00.127Z,17.42
2022-12-12T05:21:27.232Z,17.83
2022-12-12T05:23:54.385Z,16.25
2022-12-12T05:26:28.729Z,19.23
2022-12-12T05:28:56.384Z,16.02
2022-12-12T05:31:23.248Z,16.45
2022-12-12T05:33:50.704Z,17.13
2022-12-12T05:36:17.562Z,16.15
2022-12-12T05:38:44.774Z,16.33
2022-12-12T05:41:11.932Z,17.20
2022-12-12T05:43:38.761Z,22.58
2022-12-12T05:46:06.624Z,15.88
2022-12-12T05:48:34.351Z,20.35
2022-12-12T05:51:02.347Z,16.48
2022-12-12T05:53:29.401Z,26.23
2022-12-12T05:55:56.640Z,16.42
2022-12-12T05:58:24.889Z,15.13
2022-12-12T06:00:52.490Z,17.17
2022-12-12T06:03:19.716Z,16.08
2022-12-12T06:05:47.098Z,17.02
2022-12-12T06:08:14.271Z,16.58
2022-12-12T06:10:41.247Z,17.38
2022-12-12T06:13:08.052Z,15.25
2022-12-12T06:15:38.517Z,14.80
2022-12-12T06:18:05.345Z,15.68
2022-12-12T06:20:32.603Z,13.85
2022-12-12T06:22:59.425Z,17.15
2022-12-12T06:25:26.431Z,16.67
2022-12-12T06:27:53.811Z,13.48
2022-12-12T06:30:21.406Z,23.98
2022-12-12T06:32:48.340Z,18.10
2022-12-12T06:35:16.364Z,16.15
2022-12-12T06:37:43.423Z,19.10
2022-12-12T06:40:14.007Z,17.27
2022-12-12T06:42:47.725Z,22.65
2022-12-12T06:45:17.877Z,18.70
2022-12-12T06:47:44.879Z,15.60
2022-12-12T06:50:12.537Z,16.15
2022-12-12T06:52:39.594Z,11.20
2022-12-12T06:55:06.996Z,12.95
2022-12-12T06:57:36.829Z,11.95
2022-12-12T07:00:09.907Z,16.55
2022-12-12T07:02:39.750Z,13.40
2022-12-12T07:05:08.115Z,20.65
2022-12-12T07:07:35.157Z,21.92
2022-12-12T07:10:02.098Z,19.65
2022-12-12T07:12:28.976Z,12.90
2022-12-12T07:14:55.971Z,11.13
2022-12-12T07:17:23.450Z,11.77
2022-12-12T07:25:19.469Z,12.10
2022-12-12T07:30:28.041Z,10.07
2022-12-12T07:32:54.869Z,8.13
2022-12-12T07:35:21.714Z,10.75
2022-12-12T07:37:48.819Z,9.68
2022-12-12T07:40:18.390Z,12.93
2022-12-12T07:42:45.234Z,9.93
2022-12-12T07:45:17.857Z,12.93
2022-12-12T07:47:53.254Z,10.15
2022-12-12T07:50:20.423Z,8.20
2022-12-12T07:52:49.938Z,10.90
2022-12-12T07:55:19.489Z,10.68
2022-12-12T08:00:40.937Z,10.82
2022-12-12T08:08:24.755Z,13.00
2022-12-12T08:10:51.644Z,10.18
2022-12-12T08:13:18.415Z,8.57
2022-12-12T08:15:45.237Z,10.77
2022-12-12T08:18:12.059Z,11.77
2022-12-12T08:20:41.894Z,10.77
2022-12-12T08:23:08.659Z,12.27
2022-12-12T08:25:35.951Z,9.50
2022-12-12T08:28:02.920Z,10.63
2022-12-12T08:30:29.738Z,10.23
2022-12-12T08:33:01.353Z,17.65
2022-12-12T08:35:32.516Z,12.50
2022-12-12T08:38:00.023Z,11.38
2022-12-12T08:40:26.996Z,15.82
2022-12-12T08:42:53.971Z,14.35
2022-12-12T08:45:20.894Z,13.73
2022-12-12T08:47:47.712Z,11.05
2022-12-12T08:50:14.596Z,10.80
2022-12-12T08:52:41.378Z,13.20
2022-12-12T08:55:08.624Z,13.45
2022-12-12T08:57:35.396Z,11.85
2022-12-12T09:00:03.354Z,9.32
2022-12-12T09:02:30.209Z,10.35
2022-12-12T09:04:57.100Z,14.13
2022-12-12T09:07:23.864Z,15.38
2022-12-12T09:09:50.627Z,14.98
2022-12-12T09:12:17.522Z,16.60
2022-12-12T09:14:44.301Z,15.30
2022-12-12T09:17:11.092Z,13.38
2022-12-12T09:19:37.958Z,10.98
2022-12-12T09:22:04.738Z,14.63
2022-12-12T09:24:31.562Z,16.23
2022-12-12T09:26:58.417Z,16.40
2022-12-12T09:29:25.395Z,15.25
2022-12-12T09:31:52.222Z,17.73
2022-12-12T09:34:19.175Z,13.38
2022-12-12T09:36:45.982Z,15.10
2022-12-12T09:39:12.795Z,12.73
2022-12-12T09:41:40.144Z,17.27
2022-12-12T09:44:10.905Z,24.13
2022-12-12T09:46:46.080Z,20.90
2022-12-12T09:49:14.492Z,20.15
2022-12-12T09:51:47.423Z,28.38
2022-12-12T09:54:20.700Z,13.38
2022-12-12T09:57:25.631Z,20.63
2022-12-12T10:00:13.055Z,15.40
2022-12-12T10:02:45.970Z,27.63
2022-12-12T10:05:15.838Z,13.60
2022-12-12T10:08:14.571Z,12.90
2022-12-12T10:10:48.310Z,13.25
2022-12-12T10:13:19.212Z,11.73
2022-12-12T10:15:56.381Z,14.77
2022-12-12T10:18:35.409Z,14.23
2022-12-12T10:21:07.111Z,9.63
2022-12-12T10:23:46.286Z,9.63
2022-12-12T10:26:23.912Z,10.35
2022-12-12T10:29:18.621Z,6.95
2022-12-12T10:32:10.521Z,6.72
2022-12-12T10:34:52.588Z,8.43
2022-12-12T10:37:43.121Z,5.45
2022-12-12T10:40:29.000Z,6.57
2022-12-12T10:43:15.357Z,7.65
2022-12-12T10:45:54.727Z,9.68
2022-12-12T10:48:21.708Z,7.47
2022-12-12T10:50:52.650Z,9.73
2022-12-12T10:53:20.846Z,5.63
2022-12-12T10:56:00.566Z,5.93
2022-12-12T10:58:36.661Z,5.90
2022-12-12T11:01:11.269Z,8.70
2022-12-12T11:03:45.561Z,8.70
2022-12-12T11:06:17.890Z,11.73
2022-12-12T11:09:00.797Z,11.15
2022-12-12T11:11:28.988Z,10.73
2022-12-12T11:14:01.594Z,6.57
2022-12-12T11:16:39.713Z,8.60
2022-12-12T11:19:20.511Z,13.07
2022-12-12T11:21:48.408Z,7.32
2022-12-12T11:24:21.474Z,7.75
2022-12-12T11:26:57.375Z,9.65
2022-12-12T11:29:27.654Z,7.93
2022-12-12T11:31:55.921Z,19.00
2022-12-12T11:34:26.319Z,5.95
2022-12-12T11:36:53.964Z,6.80
2022-12-12T11:39:33.968Z,9.73
2022-12-12T11:42:37.050Z,8.30
2022-12-12T11:45:09.923Z,8.80
2022-12-12T11:47:42.078Z,7.97
2022-12-12T11:50:25.364Z,7.32
2022-12-12T11:52:54.974Z,5.13
2022-12-12T11:55:44.667Z,12.10
2022-12-12T11:58:21.176Z,5.32
2022-12-12T12:01:01.535Z,9.32
2022-12-12T12:03:48.834Z,4.57
2022-12-12T12:06:54.806Z,9.07
2022-12-12T12:09:49.311Z,5.00
2022-12-12T12:12:22.877Z,5.05
2022-12-12T12:15:21.485Z,6.57
2022-12-12T12:18:03.127Z,29.73
2022-12-12T12:21:14.683Z,5.85
2022-12-12T12:23:58.036Z,6.47
2022-12-12T12:26:43.571Z,5.68
2022-12-12T12:29:29.119Z,5.80
2022-12-12T12:32:11.107Z,5.78
2022-12-12T12:37:53.417Z,7.32
2022-12-12T12:40:44.646Z,4.78
2022-12-12T12:43:41.947Z,4.90
2022-12-12T12:46:30.618Z,5.43
2022-12-12T12:49:10.267Z,5.32
2022-12-12T12:51:50.655Z,6.85
2022-12-12T12:54:27.575Z,7.78
2022-12-12T12:57:12.454Z,11.68
2022-12-12T12:59:43.445Z,8.65
2022-12-12T13:02:34.814Z,6.93
2022-12-12T13:05:27.177Z,7.13
2022-12-12T13:08:21.728Z,6.15
2022-12-12T13:10:55.409Z,4.40
2022-12-12T13:13:27.396Z,5.28
2022-12-12T13:16:09.575Z,6.65
2022-12-12T13:18:46.382Z,4.55
2022-12-12T13:21:41.241Z,6.45
2022-12-12T13:29:43.432Z,2.60
2022-12-12T13:32:25.601Z,3.85
2022-12-12T13:35:05.696Z,5.40
2022-12-12T13:37:57.844Z,2.20
2022-12-12T13:41:02.042Z,2.30
2022-12-12T13:43:41.621Z,3.13
2022-12-12T13:51:32.484Z,2.05
2022-12-12T13:54:14.531Z,11.13
2022-12-12T14:02:28.227Z,1.73
2022-12-12T14:05:28.909Z,2.90
2022-12-12T14:08:13.859Z,3.03
2022-12-12T14:10:52.648Z,1.75
2022-12-12T14:13:23.006Z,2.42
2022-12-12T14:18:53.947Z,4.50
2022-12-12T14:21:36.093Z,3.50
2022-12-12T14:24:35.083Z,7.55
2022-12-12T14:27:06.529Z,3.10
2022-12-12T14:29:35.228Z,3.08
2022-12-12T14:32:11.623Z,6.60
2022-12-12T14:35:03.699Z,2.75
2022-12-12T14:40:11.195Z,3.88
2022-12-12T14:43:15.562Z,2.75
2022-12-12T14:45:38.983Z,23.48
2022-12-12T14:48:22.293Z,6.30
2022-12-12T14:51:09.531Z,8.18
2022-12-12T14:53:44.148Z,4.05
2022-12-12T14:56:17.742Z,3.08
2022-12-12T14:58:57.213Z,5.43
2022-12-12T15:01:52.290Z,4.28
2022-12-12T15:04:25.666Z,4.88
2022-12-12T15:06:54.684Z,3.42
2022-12-12T15:09:29.580Z,4.50
2022-12-12T15:12:13.111Z,8.00
2022-12-12T15:14:54.607Z,2.85
2022-12-12T15:17:32.538Z,5.28
2022-12-12T15:20:02.987Z,3.35
2022-12-12T15:22:39.290Z,4.90
2022-12-12T15:25:21.365Z,5.25
2022-12-12T15:27:55.542Z,4.97
2022-12-12T15:30:42.025Z,3.13
2022-12-12T15:33:18.203Z,4.20
2022-12-12T15:36:02.883Z,4.85
2022-12-12T15:38:31.338Z,4.13
2022-12-12T15:41:00.052Z,7.72
2022-12-12T15:43:29.302Z,6.85
2022-12-12T15:46:02.646Z,7.32
2022-12-12T15:48:29.509Z,14.45
2022-12-12T15:51:03.351Z,16.30
2022-12-12T15:53:36.793Z,3.78
2022-12-12T15:56:07.974Z,7.38
2022-12-12T15:58:46.874Z,5.13
2022-12-12T16:01:20.390Z,4.70
2022-12-12T16:04:00.152Z,10.88
2022-12-12T16:06:31.481Z,3.65
2022-12-12T16:09:01.309Z,3.63
2022-12-12T16:11:48.151Z,7.80
2022-12-12T16:14:40.641Z,6.22
2022-12-12T16:17:21.414Z,4.22
2022-12-12T16:19:58.310Z,6.85
2022-12-12T16:22:45.890Z,6.95
2022-12-12T16:25:28.357Z,6.95
2022-12-12T16:28:07.170Z,7.38
2022-12-12T16:30:35.327Z,6.72
2022-12-12T16:33:28.619Z,6.55
2022-12-12T16:35:56.162Z,3.63
2022-12-12T16:38:23.430Z,6.57
2022-12-12T16:40:53.586Z,5.18
2022-12-12T16:43:22.271Z,3.55
2022-12-12T16:45:53.756Z,4.70
2022-12-12T16:48:26.517Z,4.63
2022-12-12T16:50:58.642Z,4.40
2022-12-12T16:53:25.598Z,4.35
2022-12-12T16:55:52.871Z,5.65
2022-12-12T16:58:22.568Z,4.43
2022-12-12T17:00:52.839Z,8.30
2022-12-12T17:03:21.271Z,4.78
2022-12-12T17:05:48.733Z,5.57
2022-12-12T17:08:17.199Z,4.53
2022-12-12T17:10:46.081Z,4.38
2022-12-12T17:13:19.467Z,7.43
2022-12-12T17:15:46.705Z,3.95
2022-12-12T17:18:33.861Z,7.30
2022-12-12T17:21:00.937Z,7.57
2022-12-12T17:23:27.969Z,10.73
2022-12-12T17:26:00.998Z,5.93
2022-12-12T17:28:33.095Z,5.00
2022-12-12T17:31:00.071Z,6.47
2022-12-12T17:33:27.117Z,5.93
2022-12-12T17:36:03.239Z,2.92
2022-12-12T17:38:30.709Z,5.30
2022-12-12T17:40:58.230Z,7.72
2022-12-12T17:43:25.701Z,5.60
2022-12-12T17:46:00.417Z,9.80
2022-12-12T17:48:35.309Z,9.52
2022-12-12T17:51:04.310Z,7.70
2022-12-12T17:53:32.957Z,6.88
2022-12-12T17:56:01.298Z,6.35
2022-12-12T17:58:35.787Z,5.82
2022-12-12T18:01:13.543Z,4.97
2022-12-12T18:03:41.923Z,7.38
2022-12-12T18:06:09.294Z,7.15
2022-12-12T18:08:37.174Z,6.43
2022-12-12T18:11:09.304Z,7.00
2022-12-12T18:13:38.788Z,7.40
2022-12-12T18:16:07.157Z,8.98
2022-12-12T18:18:34.818Z,13.95
2022-12-12T18:21:23.504Z,6.32
2022-12-12T18:24:24.053Z,5.50
2022-12-12T18:26:55.533Z,4.38
2022-12-12T18:29:28.433Z,4.10
2022-12-12T18:31:55.541Z,5.25
2022-12-12T18:34:22.845Z,6.47
2022-12-12T18:36:50.053Z,11.10
2022-12-12T18:39:17.745Z,5.82
2022-12-12T18:41:44.623Z,9.73
2022-12-12T18:44:14.176Z,6.95
2022-12-12T18:46:43.382Z,5.78
2022-12-12T18:49:13.921Z,5.88
2022-12-12T18:51:41.439Z,8.63
2022-12-12T18:54:14.180Z,7.38
2022-12-12T18:56:42.205Z,7.93
2022-12-12T18:59:09.166Z,7.78
2022-12-12T19:01:37.127Z,6.68
2022-12-12T19:04:11.667Z,5.15
2022-12-12T19:06:40.316Z,4.97
2022-12-12T19:09:12.605Z,8.90
2022-12-12T19:11:39.459Z,5.00
2022-12-12T19:14:15.860Z,7.38
2022-12-12T19:16:44.089Z,6.25
2022-12-12T19:19:12.504Z,5.30
2022-12-12T19:21:40.181Z,6.40
2022-12-12T19:24:09.437Z,6.75
2022-12-12T19:26:37.476Z,9.20
2022-12-12T19:29:07.117Z,4.00
2022-12-12T19:31:36.183Z,3.65
2022-12-12T19:34:05.070Z,4.63
2022-12-12T19:36:32.667Z,6.95
2022-12-12T19:39:01.029Z,5.43
2022-12-12T19:41:28.117Z,5.93
2022-12-12T19:43:57.453Z,6.25
2022-12-12T19:46:27.647Z,6.57
2022-12-12T19:48:56.426Z,9.00
2022-12-12T19:51:24.856Z,5.38
2022-12-12T19:53:55.465Z,6.32
2022-12-12T19:56:31.572Z,7.57
2022-12-12T19:58:59.847Z,6.70
2022-12-12T20:01:30.342Z,5.80
2022-12-12T20:04:08.922Z,5.63
2022-12-12T20:06:42.113Z,7.00
2022-12-12T20:09:10.273Z,7.10
2022-12-12T20:11:38.007Z,6.60
2022-12-12T20:14:05.194Z,6.63
2022-12-12T20:16:32.172Z,6.70
2022-12-12T20:19:00.581Z,5.82
2022-12-12T20:22:00.215Z,10.27
2022-12-12T20:24:17.510Z,5.22
2022-12-12T20:26:45.470Z,6.00
2022-12-12T20:29:15.869Z,6.70
2022-12-12T20:31:45.548Z,8.07
2022-12-12T20:34:14.093Z,9.88
2022-12-12T20:36:41.546Z,8.43
2022-12-12T20:39:12.691Z,7.80
2022-12-12T20:41:40.071Z,8.88
2022-12-12T20:44:08.645Z,7.78
2022-12-12T20:46:38.166Z,6.65
2022-12-12T20:49:09.403Z,5.30
2022-12-12T20:54:24.899Z,6.20
2022-12-12T20:56:53.424Z,8.85
2022-12-12T20:59:20.319Z,6.70
2022-12-12T21:01:47.926Z,6.82
2022-12-12T21:04:15.322Z,8.10
2022-12-12T21:06:44.705Z,7.32
2022-12-12T21:09:16.254Z,8.82
2022-12-12T21:11:44.690Z,10.93
2022-12-12T21:14:12.402Z,11.25
2022-12-12T21:16:40.008Z,8.57
2022-12-12T21:19:13.693Z,9.45
2022-12-12T21:21:42.591Z,9.43
2022-12-12T21:24:14.986Z,74.82
2022-12-12T21:26:42.270Z,50.95
2022-12-12T21:29:09.271Z,32.90
2022-12-12T21:31:43.427Z,33.10
2022-12-12T21:34:13.531Z,42.90
2022-12-12T21:36:40.303Z,37.97
2022-12-12T21:39:07.265Z,38.17
2022-12-12T21:41:35.169Z,26.95
2022-12-12T21:44:02.155Z,23.30
2022-12-12T21:46:30.164Z,16.85
2022-12-12T21:49:16.782Z,17.15
2022-12-12T21:51:43.954Z,12.75
2022-12-12T21:54:12.808Z,12.38
2022-12-12T21:56:40.836Z,9.90
2022-12-12T21:59:08.249Z,10.38
2022-12-12T22:01:35.167Z,8.38
2022-12-12T22:04:02.335Z,9.52
2022-12-12T22:06:34.804Z,9.77
2022-12-12T22:09:04.456Z,12.27
2022-12-12T22:11:41.377Z,10.85
2022-12-12T22:14:14.840Z,7.93
2022-12-12T22:16:41.682Z,9.95
2022-12-12T22:19:13.764Z,8.43
2022-12-12T22:21:40.955Z,11.95
2022-12-12T22:24:08.170Z,12.45
2022-12-12T22:26:37.529Z,11.90
2022-12-12T22:29:07.362Z,10.15
2022-12-12T22:31:37.492Z,9.45
2022-12-12T22:34:11.209Z,9.90
2022-12-12T22:36:39.773Z,13.05
2022-12-12T22:39:08.448Z,9.88
2022-12-12T22:41:35.269Z,11.77
2022-12-12T22:44:04.166Z,13.18
2022-12-12T22:46:31.880Z,12.13
2022-12-12T22:49:01.235Z,11.07
2022-12-12T22:51:31.247Z,11.85
2022-12-12T22:54:00.303Z,13.10
2022-12-12T22:56:31.143Z,10.45
2022-12-12T22:58:57.983Z,12.10
2022-12-12T23:01:25.163Z,12.38
2022-12-12T23:03:52.206Z,11.20
2022-12-12T23:06:29.382Z,10.68
2022-12-12T23:08:59.314Z,10.38
2022-12-12T23:11:28.070Z,12.02
2022-12-12T23:13:58.815Z,13.55
2022-12-12T23:16:27.533Z,10.57
2022-12-12T23:18:55.000Z,11.02
2022-12-12T23:21:23.867Z,11.93
2022-12-12T23:23:51.220Z,8.50
2022-12-12T23:26:24.227Z,13.15
2022-12-12T23:28:51.591Z,17.55
2022-12-12T23:31:24.725Z,11.20
2022-12-12T23:33:56.824Z,15.98
2022-12-12T23:36:24.617Z,10.15
2022-12-12T23:38:58.398Z,14.15
2022-12-12T23:41:26.154Z,12.50
2022-12-12T23:43:53.341Z,13.20
2022-12-12T23:46:31.463Z,16.67
2022-12-12T23:48:59.636Z,15.38
2022-12-12T23:51:28.325Z,12.68
2022-12-12T23:53:56.684Z,11.38
2022-12-12T23:56:23.903Z,13.98
2022-12-12T23:58:52.892Z,12.13
